Briefing drone pour Saint-alban-leysse

Rechercher une autre localisation

Conditions de vol :


Nous sommes le : Samedi 02 juillet 2022
Il est 22:19 UTC (00:19 LT)

Lever de soleil : 03:25 UTC (05:25 LT)
Coucher de soleil : 19:54 UTC (21:54 LT)

Météo

L'essentiel des conditions de vol

VIGILANCE MÉTÉO FRANCE - Savoie (73)
Pas de vigilances particulieres
CARTE TEMSI
CARTES DES FRONTS
METAR de LFLB
LFLB 012200Z AUTO 19003KT 160V250 CAVOK 14/12 Q1021

Date d'émission: 01/07/2022
Heure d'émission: 22:00 UTC
Vent: 190° (variable du 160° au 250°) pour 3 KT (6 km/h)
Visibilité horizontale: > 10 km
Plafond : Plafond et visibilité OK (CAVOK)
Température: 14 °C
Point de rosée: 12 °C
Humidité: 88%
Pression (QNH): 1021 hPa
TAF de LFLB
LFLB 011908Z 0119/0215 CNL

Conditions prévues :

Heure d'émission : Bulletin éffectué le 01 à 19:00 UTC
Prévision : Valide du 01 a 19:00 UTC au 02 a 15:00 UTC
Nuages : à 0ft (0 m)
WEBCAM POUR SAINT-ALBAN-LEYSSE

Réglementation

Voler en sécurité

CARTES AERONAUTIQUE 1/500.000
CARTES VAC (LFLB)
SUP AIP




Chargement des AIP...
NOTAM (SAINT-ALBAN-LEYSSE + Terrain à proximité / FIR )




Chargement des NOTAMS...
CONTACT PREFECTURE 73


Avertissement : Les données mises à disposition sont indicatives. Oxygène Drone ne pourra être tenu responsable de dégâts causés aux biens et aux personnes.